PWSweather.com
Personal Weather Stations
Station Observations
ELGHEKO
El Gheko Neighborhood Association, Tucson, AZ 85710

El Gheko Neighborhood AssociationTucson, AZ 85710

Lat: 32.226108, Lon: -110.84443

Elevation: 2598

Station Type: Davis 6153 Vantage Pro 2

http://www.elgheko.us

Latest ConditionsUpdated 7:20:00 AM MST Monday, Sep 24, 2018
Currently Today's Max Today's Min Today's Average
Temperature 76.4°F24.7°C 78.4°F25.8°C 76.1°F24.5°C 77.5°F25.3°C
Dew Point 62.4°F16.9°C 62.8°F17.1°C 58.4°F14.7°C 61.2°F16.2°C
Winds Calm Calm 3.0 mph -4.8 kmh - - 0.8 mph 1.3 kmh
Wind Gusts -- 6.0 mph9.7 kmh - -
Humidity 62% 63% 51% 58%
Pressure 29.73 in1006.8 mb 29.73 in1006.8 mb 29.69 in1005.4 mb -
Hour Temp Dew Point Humidity Winds Wind Gusts Pressure Precip Precip Rate Daily Precip Total
07:20 AM 76.4°F24.7°C 62.4°F16.9°C 62% Calm Calm -- 29.73 in1006.8 mb 0.00 in0.0 mm 0.00 in0.0 mm 0.00 in0.0 mm
07:15 AM 76.3°F24.6°C 62.3°F16.8°C 62% Calm Calm -- 29.73 in1006.8 mb 0.00 in0.0 mm 0.00 in0.0 mm 0.00 in0.0 mm
07:10 AM 76.3°F24.6°C 62.8°F17.1°C 63% Calm Calm -- 29.73 in1006.8 mb 0.00 in0.0 mm 0.00 in0.0 mm 0.00 in0.0 mm
07:05 AM 76.2°F24.6°C 62.7°F17.1°C 63% Calm Calm -- 29.73 in1006.8 mb 0.00 in0.0 mm 0.00 in0.0 mm 0.00 in0.0 mm
07:00 AM 76.1°F24.5°C 62.1°F16.7°C 62% Calm Calm -- 29.73 in1006.8 mb 0.00 in0.0 mm 0.00 in0.0 mm 0.00 in0.0 mm
06:55 AM 76.1°F24.5°C 62.1°F16.7°C 62% Calm Calm -- 29.73 in1006.8 mb 0.00 in0.0 mm 0.00 in0.0 mm 0.00 in0.0 mm
06:50 AM 76.1°F24.5°C 62.1°F16.7°C 62% Calm Calm -- 29.73 in1006.8 mb 0.00 in0.0 mm 0.00 in0.0 mm 0.00 in0.0 mm
06:45 AM 76.1°F24.5°C 62.1°F16.7°C 62% Calm Calm -- 29.73 in1006.8 mb 0.00 in0.0 mm 0.00 in0.0 mm 0.00 in0.0 mm
06:40 AM 76.2°F24.6°C 62.2°F16.8°C 62% Calm Calm -- 29.73 in1006.8 mb 0.00 in0.0 mm 0.00 in0.0 mm 0.00 in0.0 mm
06:35 AM 76.2°F24.6°C 62.2°F16.8°C 62% Calm Calm 1.0 mph1.6 kmh 29.73 in1006.8 mb 0.00 in0.0 mm 0.00 in0.0 mm 0.00 in0.0 mm
06:30 AM 76.3°F24.6°C 62.3°F16.8°C 62% Calm Calm 2.0 mph3.2 kmh 29.72 in1006.4 mb 0.00 in0.0 mm 0.00 in0.0 mm 0.00 in0.0 mm
06:25 AM 76.4°F24.7°C 62.0°F16.7°C 61% 1.0 mph SE1.6 kmh SE 3.0 mph4.8 kmh 29.72 in1006.4 mb 0.00 in0.0 mm 0.00 in0.0 mm 0.00 in0.0 mm
06:20 AM 76.4°F24.7°C 62.0°F16.7°C 61% 1.0 mph SE1.6 kmh SE 3.0 mph4.8 kmh 29.72 in1006.4 mb 0.00 in0.0 mm 0.00 in0.0 mm 0.00 in0.0 mm
06:15 AM 76.5°F24.7°C 61.6°F16.4°C 60% 1.0 mph SE1.6 kmh SE 4.0 mph6.4 kmh 29.72 in1006.4 mb 0.00 in0.0 mm 0.00 in0.0 mm 0.00 in0.0 mm
06:10 AM 76.6°F24.8°C 61.7°F16.5°C 60% 1.0 mph SE1.6 kmh SE 4.0 mph6.4 kmh 29.72 in1006.4 mb 0.00 in0.0 mm 0.00 in0.0 mm 0.00 in0.0 mm
06:05 AM 76.7°F24.8°C 61.3°F16.3°C 59% 1.0 mph SE1.6 kmh SE 3.0 mph4.8 kmh 29.72 in1006.4 mb 0.00 in0.0 mm 0.00 in0.0 mm 0.00 in0.0 mm
06:00 AM 76.8°F24.9°C 61.4°F16.3°C 59% Calm Calm 2.0 mph3.2 kmh 29.72 in1006.4 mb 0.00 in0.0 mm 0.00 in0.0 mm 0.00 in0.0 mm
05:55 AM 76.8°F24.9°C 60.9°F16.1°C 58% 1.0 mph SE1.6 kmh SE 3.0 mph4.8 kmh 29.71 in1006.1 mb 0.00 in0.0 mm 0.00 in0.0 mm 0.00 in0.0 mm
05:50 AM 76.9°F24.9°C 61.0°F16.1°C 58% 1.0 mph SE1.6 kmh SE 3.0 mph4.8 kmh 29.71 in1006.1 mb 0.00 in0.0 mm 0.00 in0.0 mm 0.00 in0.0 mm
05:45 AM 76.9°F24.9°C 61.0°F16.1°C 58% 1.0 mph SE1.6 kmh SE 3.0 mph4.8 kmh 29.71 in1006.1 mb 0.00 in0.0 mm 0.00 in0.0 mm 0.00 in0.0 mm
05:40 AM 77.0°F25.0°C 61.1°F16.2°C 58% 1.0 mph SE1.6 kmh SE 3.0 mph4.8 kmh 29.71 in1006.1 mb 0.00 in0.0 mm 0.00 in0.0 mm 0.00 in0.0 mm
05:35 AM 77.0°F25.0°C 61.1°F16.2°C 58% 1.0 mph SE1.6 kmh SE 2.0 mph3.2 kmh 29.71 in1006.1 mb 0.00 in0.0 mm 0.00 in0.0 mm 0.00 in0.0 mm
05:30 AM 77.1°F25.1°C 61.2°F16.2°C 58% Calm Calm 2.0 mph3.2 kmh 29.71 in1006.1 mb 0.00 in0.0 mm 0.00 in0.0 mm 0.00 in0.0 mm
05:25 AM 77.1°F25.1°C 60.7°F15.9°C 57% Calm Calm 2.0 mph3.2 kmh 29.71 in1006.1 mb 0.00 in0.0 mm 0.00 in0.0 mm 0.00 in0.0 mm
05:20 AM 77.1°F25.1°C 60.7°F15.9°C 57% 1.0 mph SSE1.6 kmh SSE 3.0 mph4.8 kmh 29.71 in1006.1 mb 0.00 in0.0 mm 0.00 in0.0 mm 0.00 in0.0 mm
05:15 AM 77.1°F25.1°C 60.7°F15.9°C 57% 2.0 mph S3.2 kmh S 4.0 mph6.4 kmh 29.71 in1006.1 mb 0.00 in0.0 mm 0.00 in0.0 mm 0.00 in0.0 mm
05:10 AM 77.2°F25.1°C 60.8°F16.0°C 57% 3.0 mph S4.8 kmh S 4.0 mph6.4 kmh 29.71 in1006.1 mb 0.00 in0.0 mm 0.00 in0.0 mm 0.00 in0.0 mm
05:05 AM 77.2°F25.1°C 61.3°F16.3°C 58% 3.0 mph SSW4.8 kmh SSW 5.0 mph8.0 kmh 29.71 in1006.1 mb 0.00 in0.0 mm 0.00 in0.0 mm 0.00 in0.0 mm
05:00 AM 77.1°F25.1°C 61.7°F16.5°C 59% 3.0 mph S4.8 kmh S 5.0 mph8.0 kmh 29.70 in1005.8 mb 0.00 in0.0 mm 0.00 in0.0 mm 0.00 in0.0 mm
04:55 AM 77.1°F25.1°C 61.7°F16.5°C 59% 2.0 mph S3.2 kmh S 4.0 mph6.4 kmh 29.70 in1005.8 mb 0.00 in0.0 mm 0.00 in0.0 mm 0.00 in0.0 mm
04:50 AM 77.0°F25.0°C 62.0°F16.7°C 60% 1.0 mph SE1.6 kmh SE 4.0 mph6.4 kmh 29.70 in1005.8 mb 0.00 in0.0 mm 0.00 in0.0 mm 0.00 in0.0 mm
04:45 AM 77.0°F25.0°C 62.0°F16.7°C 60% Calm Calm 3.0 mph4.8 kmh 29.70 in1005.8 mb 0.00 in0.0 mm 0.00 in0.0 mm 0.00 in0.0 mm
04:40 AM 77.0°F25.0°C 62.0°F16.7°C 60% 1.0 mph N1.6 kmh N 3.0 mph4.8 kmh 29.70 in1005.8 mb 0.00 in0.0 mm 0.00 in0.0 mm 0.00 in0.0 mm
04:35 AM 77.0°F25.0°C 62.0°F16.7°C 60% 1.0 mph N1.6 kmh N 3.0 mph4.8 kmh 29.70 in1005.8 mb 0.00 in0.0 mm 0.00 in0.0 mm 0.00 in0.0 mm
04:30 AM 77.1°F25.1°C 62.1°F16.7°C 60% 1.0 mph N1.6 kmh N 3.0 mph4.8 kmh 29.70 in1005.8 mb 0.00 in0.0 mm 0.00 in0.0 mm 0.00 in0.0 mm
04:25 AM 77.1°F25.1°C 61.7°F16.5°C 59% Calm Calm -- 29.70 in1005.8 mb 0.00 in0.0 mm 0.00 in0.0 mm 0.00 in0.0 mm
04:20 AM 77.2°F25.1°C 61.8°F16.6°C 59% Calm Calm -- 29.70 in1005.8 mb 0.00 in0.0 mm 0.00 in0.0 mm 0.00 in0.0 mm
04:15 AM 77.3°F25.2°C 61.9°F16.6°C 59% Calm Calm -- 29.70 in1005.8 mb 0.00 in0.0 mm 0.00 in0.0 mm 0.00 in0.0 mm
04:10 AM 77.4°F25.2°C 61.5°F16.4°C 58% Calm Calm -- 29.70 in1005.8 mb 0.00 in0.0 mm 0.00 in0.0 mm 0.00 in0.0 mm
04:05 AM 77.5°F25.3°C 61.6°F16.4°C 58% Calm Calm -- 29.70 in1005.8 mb 0.00 in0.0 mm 0.00 in0.0 mm 0.00 in0.0 mm
04:00 AM 77.6°F25.3°C 61.7°F16.5°C 58% Calm Calm -- 29.70 in1005.8 mb 0.00 in0.0 mm 0.00 in0.0 mm 0.00 in0.0 mm
03:55 AM 77.6°F25.3°C 61.2°F16.2°C 57% Calm Calm -- 29.70 in1005.8 mb 0.00 in0.0 mm 0.00 in0.0 mm 0.00 in0.0 mm
03:50 AM 77.6°F25.3°C 61.7°F16.5°C 58% Calm Calm 2.0 mph3.2 kmh 29.70 in1005.8 mb 0.00 in0.0 mm 0.00 in0.0 mm 0.00 in0.0 mm
03:45 AM 77.6°F25.3°C 61.7°F16.5°C 58% 1.0 mph NNE1.6 kmh NNE 4.0 mph6.4 kmh 29.69 in1005.4 mb 0.00 in0.0 mm 0.00 in0.0 mm 0.00 in0.0 mm
03:40 AM 77.7°F25.4°C 61.7°F16.5°C 58% 1.0 mph NNE1.6 kmh NNE 4.0 mph6.4 kmh 29.69 in1005.4 mb 0.00 in0.0 mm 0.00 in0.0 mm 0.00 in0.0 mm
03:35 AM 77.7°F25.4°C 61.7°F16.5°C 58% 1.0 mph NE1.6 kmh NE 3.0 mph4.8 kmh 29.69 in1005.4 mb 0.00 in0.0 mm 0.00 in0.0 mm 0.00 in0.0 mm
03:30 AM 77.8°F25.4°C 61.8°F16.6°C 58% 1.0 mph NE1.6 kmh NE 3.0 mph4.8 kmh 29.69 in1005.4 mb 0.00 in0.0 mm 0.00 in0.0 mm 0.00 in0.0 mm
03:25 AM 77.9°F25.5°C 61.9°F16.6°C 58% 1.0 mph NE1.6 kmh NE 3.0 mph4.8 kmh 29.69 in1005.4 mb 0.00 in0.0 mm 0.00 in0.0 mm 0.00 in0.0 mm
03:20 AM 78.0°F25.6°C 62.0°F16.7°C 58% 1.0 mph E1.6 kmh E 3.0 mph4.8 kmh 29.70 in1005.8 mb 0.00 in0.0 mm 0.00 in0.0 mm 0.00 in0.0 mm
03:15 AM 78.1°F25.6°C 61.6°F16.4°C 57% 1.0 mph S1.6 kmh S 2.0 mph3.2 kmh 29.70 in1005.8 mb 0.00 in0.0 mm 0.00 in0.0 mm 0.00 in0.0 mm
03:10 AM 78.2°F25.7°C 61.7°F16.5°C 57% 1.0 mph S1.6 kmh S 3.0 mph4.8 kmh 29.70 in1005.8 mb 0.00 in0.0 mm 0.00 in0.0 mm 0.00 in0.0 mm
03:05 AM 78.3°F25.7°C 61.8°F16.6°C 57% 1.0 mph S1.6 kmh S 3.0 mph4.8 kmh 29.70 in1005.8 mb 0.00 in0.0 mm 0.00 in0.0 mm 0.00 in0.0 mm
03:00 AM 78.3°F25.7°C 61.8°F16.6°C 57% Calm Calm -- 29.70 in1005.8 mb 0.00 in0.0 mm 0.00 in0.0 mm 0.00 in0.0 mm
02:55 AM 78.3°F25.7°C 61.8°F16.6°C 57% 1.0 mph S1.6 kmh S 4.0 mph6.4 kmh 29.70 in1005.8 mb 0.00 in0.0 mm 0.00 in0.0 mm 0.00 in0.0 mm
02:50 AM 78.3°F25.7°C 61.8°F16.6°C 57% 1.0 mph S1.6 kmh S 4.0 mph6.4 kmh 29.70 in1005.8 mb 0.00 in0.0 mm 0.00 in0.0 mm 0.00 in0.0 mm
02:45 AM 78.4°F25.8°C 61.9°F16.6°C 57% 2.0 mph S3.2 kmh S 4.0 mph6.4 kmh 29.70 in1005.8 mb 0.00 in0.0 mm 0.00 in0.0 mm 0.00 in0.0 mm
02:40 AM 78.4°F25.8°C 61.9°F16.6°C 57% 2.0 mph S3.2 kmh S 6.0 mph9.7 kmh 29.70 in1005.8 mb 0.00 in0.0 mm 0.00 in0.0 mm 0.00 in0.0 mm
02:35 AM 78.4°F25.8°C 61.4°F16.3°C 56% 3.0 mph S4.8 kmh S 6.0 mph9.7 kmh 29.70 in1005.8 mb 0.00 in0.0 mm 0.00 in0.0 mm 0.00 in0.0 mm
02:30 AM 78.4°F25.8°C 61.4°F16.3°C 56% 3.0 mph SSE4.8 kmh SSE 6.0 mph9.7 kmh 29.70 in1005.8 mb 0.00 in0.0 mm 0.00 in0.0 mm 0.00 in0.0 mm
02:25 AM 78.4°F25.8°C 61.4°F16.3°C 56% 3.0 mph S4.8 kmh S 6.0 mph9.7 kmh 29.69 in1005.4 mb 0.00 in0.0 mm 0.00 in0.0 mm 0.00 in0.0 mm
02:20 AM 78.3°F25.7°C 61.3°F16.3°C 56% 3.0 mph S4.8 kmh S 5.0 mph8.0 kmh 29.70 in1005.8 mb 0.00 in0.0 mm 0.00 in0.0 mm 0.00 in0.0 mm
02:15 AM 78.3°F25.7°C 61.3°F16.3°C 56% 3.0 mph SSE4.8 kmh SSE 6.0 mph9.7 kmh 29.70 in1005.8 mb 0.00 in0.0 mm 0.00 in0.0 mm 0.00 in0.0 mm
02:10 AM 78.2°F25.7°C 61.2°F16.2°C 56% 2.0 mph S3.2 kmh S 6.0 mph9.7 kmh 29.70 in1005.8 mb 0.00 in0.0 mm 0.00 in0.0 mm 0.00 in0.0 mm
02:05 AM 78.1°F25.6°C 61.1°F16.2°C 56% 2.0 mph S3.2 kmh S 5.0 mph8.0 kmh 29.70 in1005.8 mb 0.00 in0.0 mm 0.00 in0.0 mm 0.00 in0.0 mm
02:00 AM 78.1°F25.6°C 61.1°F16.2°C 56% 1.0 mph S1.6 kmh S 5.0 mph8.0 kmh 29.70 in1005.8 mb 0.00 in0.0 mm 0.00 in0.0 mm 0.00 in0.0 mm
01:55 AM 78.0°F25.6°C 61.0°F16.1°C 56% Calm Calm 3.0 mph4.8 kmh 29.70 in1005.8 mb 0.00 in0.0 mm 0.00 in0.0 mm 0.00 in0.0 mm
01:50 AM 78.0°F25.6°C 60.5°F15.8°C 55% Calm Calm 3.0 mph4.8 kmh 29.70 in1005.8 mb 0.00 in0.0 mm 0.00 in0.0 mm 0.00 in0.0 mm
01:45 AM 78.0°F25.6°C 60.5°F15.8°C 55% Calm Calm 4.0 mph6.4 kmh 29.70 in1005.8 mb 0.00 in0.0 mm 0.00 in0.0 mm 0.00 in0.0 mm
01:40 AM 77.9°F25.5°C 60.9°F16.1°C 56% 1.0 mph ESE1.6 kmh ESE 5.0 mph8.0 kmh 29.70 in1005.8 mb 0.00 in0.0 mm 0.00 in0.0 mm 0.00 in0.0 mm
01:35 AM 77.8°F25.4°C 60.8°F16.0°C 56% 1.0 mph E1.6 kmh E 5.0 mph8.0 kmh 29.70 in1005.8 mb 0.00 in0.0 mm 0.00 in0.0 mm 0.00 in0.0 mm
01:30 AM 77.7°F25.4°C 60.8°F16.0°C 56% Calm Calm 3.0 mph4.8 kmh 29.70 in1005.8 mb 0.00 in0.0 mm 0.00 in0.0 mm 0.00 in0.0 mm
01:25 AM 77.8°F25.4°C 60.8°F16.0°C 56% Calm Calm -- 29.70 in1005.8 mb 0.00 in0.0 mm 0.00 in0.0 mm 0.00 in0.0 mm
01:20 AM 77.9°F25.5°C 60.4°F15.8°C 55% Calm Calm -- 29.70 in1005.8 mb 0.00 in0.0 mm 0.00 in0.0 mm 0.00 in0.0 mm
01:15 AM 77.9°F25.5°C 60.4°F15.8°C 55% Calm Calm -- 29.70 in1005.8 mb 0.00 in0.0 mm 0.00 in0.0 mm 0.00 in0.0 mm
01:10 AM 77.9°F25.5°C 60.4°F15.8°C 55% Calm Calm -- 29.70 in1005.8 mb 0.00 in0.0 mm 0.00 in0.0 mm 0.00 in0.0 mm
01:05 AM 78.0°F25.6°C 60.5°F15.8°C 55% Calm Calm -- 29.70 in1005.8 mb 0.00 in0.0 mm 0.00 in0.0 mm 0.00 in0.0 mm
01:00 AM 78.0°F25.6°C 60.5°F15.8°C 55% Calm Calm -- 29.70 in1005.8 mb 0.00 in0.0 mm 0.00 in0.0 mm 0.00 in0.0 mm
12:55 AM 78.0°F25.6°C 60.5°F15.8°C 55% Calm Calm -- 29.70 in1005.8 mb 0.00 in0.0 mm 0.00 in0.0 mm 0.00 in0.0 mm
12:50 AM 78.0°F25.6°C 60.5°F15.8°C 55% Calm Calm -- 29.70 in1005.8 mb 0.00 in0.0 mm 0.00 in0.0 mm 0.00 in0.0 mm
12:45 AM 78.0°F25.6°C 60.5°F15.8°C 55% Calm Calm -- 29.70 in1005.8 mb 0.00 in0.0 mm 0.00 in0.0 mm 0.00 in0.0 mm
12:40 AM 78.0°F25.6°C 60.0°F15.6°C 54% Calm Calm -- 29.70 in1005.8 mb 0.00 in0.0 mm 0.00 in0.0 mm 0.00 in0.0 mm
12:35 AM 78.1°F25.6°C 60.1°F15.6°C 54% Calm Calm -- 29.70 in1005.8 mb 0.00 in0.0 mm 0.00 in0.0 mm 0.00 in0.0 mm
12:30 AM 78.1°F25.6°C 59.6°F15.3°C 53% Calm Calm -- 29.70 in1005.8 mb 0.00 in0.0 mm 0.00 in0.0 mm 0.00 in0.0 mm
12:25 AM 78.1°F25.6°C 59.6°F15.3°C 53% Calm Calm -- 29.70 in1005.8 mb 0.00 in0.0 mm 0.00 in0.0 mm 0.00 in0.0 mm
12:20 AM 78.0°F25.6°C 59.5°F15.3°C 53% Calm Calm -- 29.70 in1005.8 mb 0.00 in0.0 mm 0.00 in0.0 mm 0.00 in0.0 mm
12:15 AM 78.1°F25.6°C 59.0°F15.0°C 52% 1.0 mph N1.6 kmh N 3.0 mph4.8 kmh 29.70 in1005.8 mb 0.00 in0.0 mm 0.00 in0.0 mm 0.00 in0.0 mm
12:10 AM 78.1°F25.6°C 59.0°F15.0°C 52% 2.0 mph N3.2 kmh N 3.0 mph4.8 kmh 29.70 in1005.8 mb 0.00 in0.0 mm 0.00 in0.0 mm 0.00 in0.0 mm
12:05 AM 78.0°F25.6°C 58.9°F14.9°C 52% 1.0 mph N1.6 kmh N 3.0 mph4.8 kmh 29.71 in1006.1 mb 0.00 in0.0 mm 0.00 in0.0 mm 0.00 in0.0 mm
12:00 AM 78.0°F25.6°C 58.4°F14.7°C 51% Calm Calm -- 29.71 in1006.1 mb 0.00 in0.0 mm 0.00 in0.0 mm 0.00 in0.0 mm